createdAt,value
2023-04-16T00:02:07.680Z,15.37
2023-04-16T00:06:10.939Z,16.23
2023-04-16T00:10:12.093Z,16.03
2023-04-16T00:14:13.539Z,14.60
2023-04-16T00:18:14.534Z,16.40
2023-04-16T00:22:18.457Z,16.07
2023-04-16T00:26:19.860Z,16.23
2023-04-16T00:30:22.278Z,17.73
2023-04-16T00:34:23.444Z,17.23
2023-04-16T00:38:24.583Z,16.10
2023-04-16T00:42:25.834Z,15.47
2023-04-16T00:46:27.493Z,16.60
2023-04-16T00:50:29.153Z,15.73
2023-04-16T00:54:31.661Z,17.33
2023-04-16T00:58:34.312Z,17.60
2023-04-16T01:02:36.117Z,15.73
2023-04-16T01:06:37.129Z,15.93
2023-04-16T01:10:38.286Z,16.47
2023-04-16T01:14:39.531Z,16.90
2023-04-16T01:18:40.702Z,16.60
2023-04-16T01:22:41.940Z,15.93
2023-04-16T01:26:43.041Z,16.57
2023-04-16T01:30:44.100Z,16.50
2023-04-16T01:34:45.216Z,16.63
2023-04-16T01:38:46.478Z,15.10
2023-04-16T01:42:47.583Z,17.40
2023-04-16T01:46:48.734Z,17.23
2023-04-16T01:50:50.017Z,17.53
2023-04-16T01:54:51.121Z,15.90
2023-04-16T01:58:52.485Z,18.00
2023-04-16T02:02:54.114Z,17.00
2023-04-16T02:06:55.385Z,18.03
2023-04-16T02:10:56.736Z,17.80
2023-04-16T02:14:58.028Z,17.67
2023-04-16T02:18:59.102Z,18.87
2023-04-16T02:23:00.279Z,19.00
2023-04-16T02:27:02.054Z,18.70
2023-04-16T02:31:03.145Z,17.83
2023-04-16T02:35:05.130Z,18.67
2023-04-16T02:39:06.207Z,19.37
2023-04-16T02:43:07.152Z,20.00
2023-04-16T02:47:08.464Z,19.53
2023-04-16T02:51:09.674Z,21.10
2023-04-16T02:55:10.993Z,22.40
2023-04-16T02:59:11.985Z,21.43
2023-04-16T03:03:13.422Z,19.63
2023-04-16T03:07:20.089Z,20.73
2023-04-16T03:11:21.411Z,22.57
2023-04-16T03:15:22.391Z,20.67
2023-04-16T03:19:23.653Z,19.90
2023-04-16T03:23:24.609Z,20.47
2023-04-16T03:27:25.733Z,21.70
2023-04-16T03:31:27.553Z,22.23
2023-04-16T03:35:28.716Z,22.47
2023-04-16T03:39:29.896Z,22.10
2023-04-16T03:43:31.085Z,22.43
2023-04-16T03:47:32.228Z,19.40
2023-04-16T03:51:33.176Z,20.13
2023-04-16T03:55:35.523Z,20.70
2023-04-16T03:59:36.530Z,19.53
2023-04-16T04:03:38.026Z,18.13
2023-04-16T04:07:39.339Z,20.77
2023-04-16T04:11:40.896Z,19.97
2023-04-16T04:15:42.041Z,18.30
2023-04-16T04:19:54.277Z,16.80
2023-04-16T04:23:46.083Z,17.40
2023-04-16T04:27:47.456Z,17.57
2023-04-16T04:31:48.746Z,17.37
2023-04-16T04:35:50.167Z,19.20
2023-04-16T04:39:51.286Z,17.37
2023-04-16T04:43:52.399Z,16.27
2023-04-16T04:47:53.523Z,16.37
2023-04-16T04:51:54.478Z,15.10
2023-04-16T04:55:58.786Z,15.40
2023-04-16T04:59:58.532Z,17.30
2023-04-16T05:03:59.793Z,16.53
2023-04-16T05:08:00.724Z,14.03
2023-04-16T05:12:02.177Z,16.53
2023-04-16T05:16:03.557Z,14.53
2023-04-16T05:20:05.973Z,15.40
2023-04-16T05:24:07.079Z,15.50
2023-04-16T05:28:08.042Z,14.50
2023-04-16T05:32:09.197Z,14.47
2023-04-16T05:36:10.189Z,16.03
2023-04-16T05:40:13.931Z,16.77
2023-04-16T05:44:15.421Z,15.67
2023-04-16T05:48:16.545Z,15.47
2023-04-16T05:52:17.485Z,17.07
2023-04-16T05:56:18.725Z,16.40
2023-04-16T06:00:20.242Z,15.67
2023-04-16T06:04:21.307Z,18.03
2023-04-16T06:08:22.511Z,19.13
2023-04-16T06:12:23.629Z,18.93
2023-04-16T06:16:24.797Z,19.20
2023-04-16T06:20:25.896Z,17.90
2023-04-16T06:24:27.061Z,19.10
2023-04-16T06:28:28.182Z,21.50
2023-04-16T06:32:29.745Z,18.37
2023-04-16T06:36:30.814Z,19.40
2023-04-16T06:40:32.045Z,20.67
2023-04-16T06:44:33.406Z,21.33
2023-04-16T06:48:34.412Z,21.47
2023-04-16T06:52:35.506Z,20.73
2023-04-16T06:56:36.801Z,21.77
2023-04-16T07:00:37.867Z,21.03
2023-04-16T07:04:46.084Z,22.40
2023-04-16T07:08:47.257Z,23.50
2023-04-16T07:12:48.474Z,23.47
2023-04-16T07:16:49.776Z,22.17
2023-04-16T07:20:50.832Z,22.73
2023-04-16T07:24:51.977Z,23.87
2023-04-16T07:28:53.049Z,24.83
2023-04-16T07:32:55.215Z,24.27
2023-04-16T07:36:56.337Z,21.80
2023-04-16T07:40:57.529Z,22.03
2023-04-16T07:44:58.504Z,22.60
2023-04-16T07:48:59.585Z,24.30
2023-04-16T07:53:00.770Z,23.53
2023-04-16T07:57:01.725Z,21.77
2023-04-16T08:01:02.867Z,23.87
2023-04-16T08:05:04.320Z,24.90
2023-04-16T08:09:05.660Z,23.40
2023-04-16T08:13:06.748Z,22.03
2023-04-16T08:17:08.617Z,22.73
2023-04-16T08:21:09.715Z,23.80
2023-04-16T08:25:11.369Z,32.97
2023-04-16T08:29:12.574Z,28.97
2023-04-16T08:33:13.935Z,27.63
2023-04-16T08:37:15.106Z,27.47
2023-04-16T08:41:16.289Z,22.07
2023-04-16T08:45:18.227Z,25.20
2023-04-16T08:49:19.290Z,25.33
2023-04-16T08:53:24.191Z,21.60
2023-04-16T08:57:29.116Z,20.73
2023-04-16T09:01:32.209Z,20.40
2023-04-16T09:05:34.425Z,21.93
2023-04-16T09:09:38.445Z,19.77
2023-04-16T09:13:39.748Z,20.43
2023-04-16T09:17:40.797Z,21.93
2023-04-16T09:21:44.426Z,25.33
2023-04-16T09:25:45.683Z,19.33
2023-04-16T09:29:46.688Z,19.07
2023-04-16T09:34:05.553Z,19.27
2023-04-16T09:38:06.592Z,18.03
2023-04-16T09:42:07.684Z,18.00
2023-04-16T09:46:12.333Z,20.37
2023-04-16T09:50:18.988Z,17.50
2023-04-16T09:54:20.388Z,18.73
2023-04-16T09:58:23.847Z,17.50
2023-04-16T10:02:28.930Z,17.93
2023-04-16T10:06:30.513Z,19.70
2023-04-16T10:10:31.802Z,17.80
2023-04-16T10:14:36.013Z,18.00
2023-04-16T10:18:41.796Z,18.80
2023-04-16T10:22:42.956Z,18.37
2023-04-16T10:26:44.814Z,19.87
2023-04-16T10:30:52.813Z,18.37
2023-04-16T10:34:55.268Z,18.60
2023-04-16T10:38:57.875Z,22.27
2023-04-16T10:43:02.688Z,20.80
2023-04-16T10:47:12.482Z,20.57
2023-04-16T10:51:27.299Z,21.80
2023-04-16T10:55:28.398Z,37.43
2023-04-16T10:59:35.155Z,40.70
2023-04-16T11:03:36.635Z,32.93
2023-04-16T11:07:41.718Z,22.57
2023-04-16T11:11:42.945Z,32.77
2023-04-16T11:15:44.044Z,25.80
2023-04-16T11:19:45.480Z,23.50
2023-04-16T11:23:50.896Z,27.33
2023-04-16T11:27:52.938Z,21.93
2023-04-16T11:31:54.741Z,21.10
2023-04-16T11:35:58.393Z,19.80
2023-04-16T11:39:59.695Z,22.37
2023-04-16T11:44:04.693Z,19.67
2023-04-16T11:48:06.198Z,18.60
2023-04-16T11:52:07.435Z,17.93
2023-04-16T11:56:08.607Z,17.07
2023-04-16T12:00:12.235Z,17.53
2023-04-16T12:04:15.892Z,17.87
2023-04-16T12:08:29.669Z,18.63
2023-04-16T12:12:32.049Z,17.17
2023-04-16T12:16:35.815Z,16.00
2023-04-16T12:20:43.371Z,16.83
2023-04-16T12:24:44.686Z,16.03
2023-04-16T12:28:46.076Z,16.97
2023-04-16T12:32:49.262Z,17.50
2023-04-16T12:37:06.242Z,18.23
2023-04-16T12:41:07.374Z,18.73
2023-04-16T12:45:08.654Z,17.87
2023-04-16T12:49:11.027Z,19.23
2023-04-16T12:53:12.300Z,18.17
2023-04-16T12:57:13.368Z,18.57
2023-04-16T13:01:14.582Z,17.43
2023-04-16T13:05:15.968Z,17.30
2023-04-16T13:09:17.648Z,18.33
2023-04-16T13:13:18.788Z,16.87
2023-04-16T13:17:19.968Z,15.17
2023-04-16T13:21:22.336Z,16.20
2023-04-16T13:25:23.456Z,17.57
2023-04-16T13:29:24.740Z,16.03
2023-04-16T13:33:26.275Z,17.13
2023-04-16T13:37:27.406Z,15.27
2023-04-16T13:41:28.395Z,16.73
2023-04-16T13:45:29.617Z,14.87
2023-04-16T13:49:33.743Z,13.43
2023-04-16T13:53:35.504Z,13.17
2023-04-16T13:57:36.489Z,11.13
2023-04-16T14:01:38.041Z,11.30
2023-04-16T14:05:39.279Z,11.93
2023-04-16T14:09:40.608Z,12.80
2023-04-16T14:13:41.821Z,11.93
2023-04-16T14:17:43.468Z,11.53
2023-04-16T14:21:44.575Z,12.40
2023-04-16T14:25:45.584Z,11.27
2023-04-16T14:29:46.650Z,11.10
2023-04-16T14:33:47.679Z,11.43
2023-04-16T14:37:49.962Z,9.97
2023-04-16T14:41:51.097Z,11.27
2023-04-16T14:45:52.843Z,10.40
2023-04-16T14:49:53.965Z,10.27
2023-04-16T14:53:55.985Z,10.83
2023-04-16T14:57:57.622Z,10.13
2023-04-16T15:01:58.912Z,12.07
2023-04-16T15:06:00.337Z,10.63
2023-04-16T15:10:02.161Z,11.07
2023-04-16T15:14:03.186Z,11.80
2023-04-16T15:18:05.383Z,12.13
2023-04-16T15:22:06.478Z,10.93
2023-04-16T15:26:07.530Z,9.87
2023-04-16T15:30:09.463Z,12.10
2023-04-16T15:34:11.156Z,10.47
2023-04-16T15:38:12.604Z,10.93
2023-04-16T15:42:13.718Z,11.60
2023-04-16T15:46:15.012Z,11.47
2023-04-16T15:50:19.659Z,10.87
2023-04-16T15:54:20.898Z,10.83
2023-04-16T15:58:22.474Z,11.47
2023-04-16T16:02:23.598Z,12.07
2023-04-16T16:06:26.543Z,14.00
2023-04-16T16:10:27.651Z,16.20
2023-04-16T16:14:28.744Z,15.10
2023-04-16T16:18:30.005Z,15.70
2023-04-16T16:22:31.025Z,13.73
2023-04-16T16:26:32.032Z,15.60
2023-04-16T16:30:33.251Z,16.20
2023-04-16T16:34:34.212Z,14.97
2023-04-16T16:38:35.236Z,14.60
2023-04-16T16:42:36.438Z,17.13
2023-04-16T16:46:37.721Z,14.27
2023-04-16T16:50:38.773Z,14.97
2023-04-16T16:54:40.164Z,15.70
2023-04-16T16:58:41.405Z,15.63
2023-04-16T17:02:43.051Z,15.30
2023-04-16T17:06:44.277Z,15.93
2023-04-16T17:10:45.240Z,16.73
2023-04-16T17:14:50.269Z,18.27
2023-04-16T17:18:51.305Z,16.87
2023-04-16T17:22:52.246Z,19.63
2023-04-16T17:31:03.091Z,19.40
2023-04-16T17:35:06.167Z,19.00
2023-04-16T17:39:07.279Z,18.17
2023-04-16T17:43:08.260Z,19.57
2023-04-16T17:47:09.387Z,18.50
2023-04-16T17:51:15.725Z,18.07
2023-04-16T17:55:16.746Z,19.80
2023-04-16T17:59:18.234Z,18.63
2023-04-16T18:03:21.791Z,18.83
2023-04-16T18:07:22.120Z,18.23
2023-04-16T18:11:23.453Z,20.13
2023-04-16T18:15:24.628Z,18.93
2023-04-16T18:19:25.811Z,54.03
2023-04-16T18:23:27.511Z,21.33
2023-04-16T18:27:28.893Z,22.95
2023-04-16T18:31:30.117Z,20.77
2023-04-16T18:35:31.209Z,19.43
2023-04-16T18:39:33.271Z,19.37
2023-04-16T18:43:34.254Z,20.80
2023-04-16T18:47:35.674Z,19.17
2023-04-16T18:51:36.787Z,19.73
2023-04-16T18:55:37.745Z,19.90
2023-04-16T18:59:38.719Z,18.50
2023-04-16T19:03:40.010Z,19.13
2023-04-16T19:07:41.187Z,18.40
2023-04-16T19:11:42.713Z,17.77
2023-04-16T19:15:43.761Z,18.97
2023-04-16T19:19:45.259Z,18.40
2023-04-16T19:23:46.366Z,20.17
2023-04-16T19:27:47.502Z,19.93
2023-04-16T19:31:48.708Z,20.40
2023-04-16T19:35:49.768Z,21.33
2023-04-16T19:39:50.714Z,23.33
2023-04-16T19:43:54.123Z,20.10
2023-04-16T19:47:56.329Z,21.53
2023-04-16T19:51:57.505Z,20.10
2023-04-16T19:55:58.448Z,22.30
2023-04-16T19:59:59.554Z,20.40
2023-04-16T20:04:00.787Z,22.23
2023-04-16T20:08:01.974Z,20.63
2023-04-16T20:12:03.390Z,20.23
2023-04-16T20:16:05.142Z,23.13
2023-04-16T20:20:09.249Z,22.27
2023-04-16T20:24:12.496Z,23.63
2023-04-16T20:28:15.549Z,24.03
2023-04-16T20:32:16.799Z,21.97
2023-04-16T20:36:17.985Z,24.03
2023-04-16T20:40:20.521Z,23.77
2023-04-16T20:44:25.356Z,25.17
2023-04-16T20:48:26.387Z,24.20
2023-04-16T20:52:27.739Z,25.70
2023-04-16T20:56:29.038Z,27.43
2023-04-16T21:00:30.075Z,24.43
2023-04-16T21:04:31.318Z,27.53
2023-04-16T21:08:32.689Z,27.40
2023-04-16T21:12:33.694Z,23.93
2023-04-16T21:16:34.882Z,25.90
2023-04-16T21:20:36.885Z,26.10
2023-04-16T21:24:38.016Z,25.93
2023-04-16T21:28:39.279Z,27.13
2023-04-16T21:32:40.299Z,25.57
2023-04-16T21:36:41.341Z,27.33
2023-04-16T21:40:42.461Z,27.40
2023-04-16T21:44:43.498Z,26.97
2023-04-16T21:48:44.962Z,28.47
2023-04-16T21:52:46.155Z,26.83
2023-04-16T21:56:47.223Z,28.57
2023-04-16T22:00:48.367Z,30.63
2023-04-16T22:04:49.993Z,29.93
2023-04-16T22:08:51.120Z,30.60
2023-04-16T22:12:54.209Z,30.50
2023-04-16T22:16:55.780Z,32.70
2023-04-16T22:20:57.174Z,34.47
2023-04-16T22:24:58.533Z,34.60
2023-04-16T22:29:00.014Z,33.33
2023-04-16T22:33:03.079Z,32.17
2023-04-16T22:37:04.235Z,33.77
2023-04-16T22:41:05.232Z,33.60
2023-04-16T22:45:07.830Z,35.63
2023-04-16T22:49:09.153Z,35.57
2023-04-16T22:53:10.466Z,34.50
2023-04-16T22:57:11.519Z,36.10
2023-04-16T23:01:12.476Z,40.40
2023-04-16T23:05:13.913Z,38.77
2023-04-16T23:09:15.063Z,38.50
2023-04-16T23:13:15.995Z,38.03
2023-04-16T23:17:17.148Z,40.27
2023-04-16T23:21:18.257Z,42.03
2023-04-16T23:25:19.424Z,40.90
2023-04-16T23:29:20.602Z,41.93
2023-04-16T23:33:22.066Z,45.13
2023-04-16T23:37:23.979Z,42.53
2023-04-16T23:41:25.299Z,42.73
2023-04-16T23:45:26.419Z,41.17
2023-04-16T23:49:27.556Z,39.90
2023-04-16T23:53:28.728Z,41.30
2023-04-16T23:57:29.900Z,42.83
